createdAt,value
2016-11-11T00:00:25.521Z,21.7
2016-11-11T00:01:35.837Z,21.66
2016-11-11T00:02:46.160Z,21.68
2016-11-11T00:03:56.606Z,21.67
2016-11-11T00:05:21.496Z,21.67
2016-11-11T00:06:31.816Z,21.73
2016-11-11T00:09:07.027Z,21.68
2016-11-11T00:10:17.382Z,21.66
2016-11-11T00:11:27.757Z,21.58
2016-11-11T00:12:38.177Z,21.53
2016-11-11T00:13:48.590Z,21.43
2016-11-11T00:14:59.006Z,21.52
2016-11-11T00:16:09.431Z,21.43
2016-11-11T00:17:19.858Z,21.37
2016-11-11T00:18:30.764Z,21.4
2016-11-11T00:19:41.205Z,21.34
2016-11-11T00:20:51.716Z,21.42
2016-11-11T00:22:02.128Z,21.43
2016-11-11T00:23:12.548Z,21.38
2016-11-11T00:24:37.515Z,21.37
2016-11-11T00:25:48.028Z,21.43
2016-11-11T00:26:58.444Z,21.43
2016-11-11T00:28:08.860Z,21.37
2016-11-11T00:29:19.275Z,21.37
2016-11-11T00:30:29.715Z,21.36
2016-11-11T00:31:40.284Z,21.33
2016-11-11T00:32:50.815Z,21.33
2016-11-11T00:34:01.345Z,21.34
2016-11-11T00:35:11.878Z,21.33
2016-11-11T00:36:22.414Z,21.3
2016-11-11T00:37:32.942Z,21.3
2016-11-11T00:38:43.478Z,21.28
2016-11-11T00:39:54.009Z,21.27
2016-11-11T00:41:04.549Z,21.28
2016-11-11T00:42:15.081Z,21.31
2016-11-11T00:43:25.721Z,21.31
2016-11-11T00:44:36.252Z,21.38
2016-11-11T00:45:46.781Z,21.33
2016-11-11T00:46:57.312Z,21.34
2016-11-11T00:48:07.844Z,21.4
2016-11-11T00:49:18.474Z,21.43
2016-11-11T00:50:29.003Z,21.38
2016-11-11T00:51:40.040Z,21.46
2016-11-11T00:52:50.568Z,21.46
2016-11-11T00:54:01.101Z,21.38
2016-11-11T00:55:11.628Z,21.36
2016-11-11T00:56:22.107Z,21.36
2016-11-11T00:57:32.545Z,21.38
2016-11-11T00:58:43.010Z,21.36
2016-11-11T00:59:53.445Z,21.33
2016-11-11T01:01:18.437Z,21.36
2016-11-11T01:02:28.875Z,21.38
2016-11-11T01:03:39.309Z,21.31
2016-11-11T01:04:49.747Z,21.28
2016-11-11T01:06:00.184Z,21.36
2016-11-11T01:07:10.731Z,21.4
2016-11-11T01:08:21.171Z,21.42
2016-11-11T01:09:31.612Z,21.45
2016-11-11T01:10:42.050Z,21.4
2016-11-11T01:11:52.489Z,21.42
2016-11-11T01:13:02.924Z,21.51
2016-11-11T01:14:13.369Z,21.52
2016-11-11T01:15:23.806Z,21.52
2016-11-11T01:16:34.244Z,21.55
2016-11-11T01:17:44.681Z,21.48
2016-11-11T01:18:55.221Z,21.48
2016-11-11T01:20:05.687Z,21.37
2016-11-11T01:21:30.669Z,21.46
2016-11-11T01:22:41.115Z,21.51
2016-11-11T01:23:51.596Z,21.46
2016-11-11T01:25:02.046Z,21.42
2016-11-11T01:26:12.488Z,21.49
2016-11-11T01:27:22.926Z,21.48
2016-11-11T01:28:33.366Z,21.43
2016-11-11T01:29:43.906Z,21.46
2016-11-11T01:30:54.345Z,21.48
2016-11-11T01:32:04.786Z,21.43
2016-11-11T01:33:15.225Z,21.53
2016-11-11T01:34:25.669Z,21.55
2016-11-11T01:35:51.139Z,21.56
2016-11-11T01:37:16.121Z,21.49
2016-11-11T01:38:26.499Z,21.37
2016-11-11T01:39:36.821Z,21.49
2016-11-11T01:40:47.145Z,21.48
2016-11-11T01:41:57.465Z,21.38
2016-11-11T01:43:07.785Z,21.43
2016-11-11T01:44:18.112Z,21.37
2016-11-11T01:45:28.432Z,21.42
2016-11-11T01:46:38.763Z,21.4
2016-11-11T01:47:49.085Z,21.43
2016-11-11T01:48:59.403Z,21.42
2016-11-11T01:50:09.759Z,21.49
2016-11-11T01:51:20.078Z,21.51
2016-11-11T01:52:30.498Z,21.52
2016-11-11T01:53:40.817Z,21.58
2016-11-11T01:55:06.222Z,21.53
2016-11-11T01:56:31.109Z,21.55
2016-11-11T01:57:41.427Z,21.49
2016-11-11T01:58:51.753Z,21.53
2016-11-11T02:00:02.078Z,21.48
2016-11-11T02:02:51.853Z,21.46
2016-11-11T02:04:16.739Z,21.48
2016-11-11T02:05:27.063Z,21.42
2016-11-11T02:06:37.383Z,21.46
2016-11-11T02:07:47.736Z,21.4
2016-11-11T02:08:58.088Z,21.42
2016-11-11T02:10:08.408Z,21.46
2016-11-11T02:11:18.734Z,21.45
2016-11-11T02:12:29.111Z,21.4
2016-11-11T02:13:39.650Z,21.37
2016-11-11T02:14:50.090Z,21.37
2016-11-11T02:16:00.533Z,21.37
2016-11-11T02:17:10.984Z,21.34
2016-11-11T02:18:36.067Z,21.4
2016-11-11T02:19:46.501Z,21.36
2016-11-11T02:20:56.941Z,21.43
2016-11-11T02:23:32.362Z,21.38
2016-11-11T02:24:44.029Z,21.37
2016-11-11T02:25:54.466Z,21.36
2016-11-11T02:27:04.907Z,21.38
2016-11-11T02:28:15.346Z,21.38
2016-11-11T02:29:25.782Z,21.42
2016-11-11T02:30:36.224Z,21.4
2016-11-11T02:31:46.667Z,21.45
2016-11-11T02:32:57.114Z,21.48
2016-11-11T02:34:07.565Z,21.4
2016-11-11T02:35:18.002Z,21.46
2016-11-11T02:36:28.437Z,21.45
2016-11-11T02:37:53.420Z,21.49
2016-11-11T02:39:03.863Z,21.52
2016-11-11T02:40:14.501Z,21.49
2016-11-11T02:41:24.940Z,21.49
2016-11-11T02:42:35.377Z,21.49
2016-11-11T02:44:00.365Z,21.46
2016-11-11T02:45:11.304Z,21.58
2016-11-11T02:46:21.847Z,21.53
2016-11-11T02:47:32.284Z,21.53
2016-11-11T02:48:42.721Z,21.51
2016-11-11T02:49:53.195Z,21.49
2016-11-11T02:51:03.637Z,21.46
2016-11-11T02:52:14.073Z,21.46
2016-11-11T02:53:24.510Z,21.49
2016-11-11T02:54:34.954Z,21.37
2016-11-11T02:56:00.076Z,21.36
2016-11-11T02:57:10.539Z,21.4
2016-11-11T02:58:21.006Z,21.42
2016-11-11T02:59:31.442Z,21.33
2016-11-11T03:00:41.889Z,21.31
2016-11-11T03:01:52.338Z,21.31
2016-11-11T03:03:02.781Z,21.28
2016-11-11T03:04:13.220Z,21.36
2016-11-11T03:05:23.662Z,21.34
2016-11-11T03:06:34.133Z,21.36
2016-11-11T03:07:44.576Z,21.34
2016-11-11T03:08:55.017Z,21.34
2016-11-11T03:10:05.457Z,21.36
2016-11-11T03:11:15.895Z,21.38
2016-11-11T03:12:26.330Z,21.26
2016-11-11T03:13:36.966Z,21.33
2016-11-11T03:14:47.402Z,21.28
2016-11-11T03:15:57.838Z,21.22
2016-11-11T03:17:08.284Z,21.24
2016-11-11T03:19:43.745Z,21.34
2016-11-11T03:20:54.062Z,21.26
2016-11-11T03:22:04.386Z,21.31
2016-11-11T03:23:14.742Z,21.31
2016-11-11T03:24:25.260Z,21.19
2016-11-11T03:25:50.147Z,21.21
2016-11-11T03:27:00.475Z,21.19
2016-11-11T03:28:10.795Z,21.21
2016-11-11T03:29:35.885Z,21.19
2016-11-11T03:30:46.208Z,21.18
2016-11-11T03:33:21.451Z,21.24
2016-11-11T03:34:31.789Z,21.3
2016-11-11T03:35:42.329Z,21.16
2016-11-11T03:36:52.710Z,21.18
2016-11-11T03:38:03.051Z,21.11
2016-11-11T03:39:13.391Z,21.21
2016-11-11T03:40:23.732Z,21.22
2016-11-11T03:41:34.112Z,21.13
2016-11-11T03:42:44.450Z,21.08
2016-11-11T03:43:54.796Z,21.09
2016-11-11T03:45:05.163Z,21.13
2016-11-11T03:46:15.599Z,21.11
2016-11-11T03:47:25.933Z,21.08
2016-11-11T03:48:36.268Z,21.12
2016-11-11T03:49:46.613Z,21.12
2016-11-11T03:50:56.949Z,21.13
2016-11-11T03:52:07.290Z,21.12
2016-11-11T03:53:17.630Z,21.19
2016-11-11T03:54:27.992Z,21.11
2016-11-11T03:55:38.329Z,21.11
2016-11-11T03:56:48.673Z,20.96
2016-11-11T03:57:59.207Z,21
2016-11-11T03:59:09.589Z,20.96
2016-11-11T04:00:19.919Z,21.05
2016-11-11T04:01:30.261Z,21.05
2016-11-11T04:02:40.595Z,21
2016-11-11T04:03:51.041Z,21.06
2016-11-11T04:05:15.942Z,21.03
2016-11-11T04:06:26.285Z,21.08
2016-11-11T04:07:36.658Z,21.05
2016-11-11T04:08:47.100Z,21.08
2016-11-11T04:09:57.439Z,21.06
2016-11-11T04:11:07.777Z,21.11
2016-11-11T04:12:18.115Z,21.11
2016-11-11T04:13:28.454Z,21.12
2016-11-11T04:14:38.794Z,21.03
2016-11-11T04:15:49.129Z,21.09
2016-11-11T04:16:59.507Z,20.93
2016-11-11T04:18:09.837Z,20.98
2016-11-11T04:19:20.165Z,20.96
2016-11-11T04:20:30.685Z,20.97
2016-11-11T04:21:41.007Z,21.01
2016-11-11T04:22:51.365Z,21
2016-11-11T04:24:01.721Z,21
2016-11-11T04:25:26.614Z,20.96
2016-11-11T04:26:36.942Z,20.93
2016-11-11T04:27:47.264Z,20.96
2016-11-11T04:28:57.585Z,21.06
2016-11-11T04:34:54.324Z,20.98
2016-11-11T04:36:04.647Z,21.09
2016-11-11T04:37:14.977Z,21.06
2016-11-11T04:38:25.296Z,21.11
2016-11-11T04:39:35.627Z,21.09
2016-11-11T04:40:45.949Z,21.15
2016-11-11T04:41:56.265Z,21.11
2016-11-11T04:43:06.587Z,21.08
2016-11-11T04:44:16.910Z,21.05
2016-11-11T04:45:27.230Z,21.06
2016-11-11T04:46:37.552Z,21.05
2016-11-11T04:47:47.871Z,20.96
2016-11-11T04:48:58.194Z,20.98
2016-11-11T04:50:08.515Z,20.97
2016-11-11T04:51:18.840Z,20.94
2016-11-11T04:52:29.359Z,21
2016-11-11T04:53:39.679Z,20.97
2016-11-11T04:54:50.000Z,20.93
2016-11-11T04:56:00.324Z,20.85
2016-11-11T04:57:10.648Z,20.81
2016-11-11T04:58:20.974Z,20.85
2016-11-11T04:59:31.293Z,20.85
2016-11-11T05:00:41.673Z,20.85
2016-11-11T05:01:52.112Z,20.91
2016-11-11T05:03:02.564Z,20.88
2016-11-11T05:04:13.123Z,20.87
2016-11-11T05:05:23.577Z,20.91
2016-11-11T05:06:34.033Z,20.82
2016-11-11T05:07:44.493Z,20.9
2016-11-11T05:08:54.972Z,20.87
2016-11-11T05:10:05.462Z,20.88
2016-11-11T05:11:15.915Z,20.87
2016-11-11T05:12:26.371Z,20.94
2016-11-11T05:13:36.823Z,20.96
2016-11-11T05:14:47.273Z,20.96
2016-11-11T05:15:57.733Z,20.96
2016-11-11T05:17:08.186Z,20.97
2016-11-11T05:18:18.650Z,21.03
2016-11-11T05:19:29.098Z,21.03
2016-11-11T05:20:39.551Z,21
2016-11-11T05:21:50.100Z,21.06
2016-11-11T05:23:00.559Z,21.01
2016-11-11T05:24:11.495Z,20.94
2016-11-11T05:25:21.949Z,21
2016-11-11T05:26:32.405Z,20.97
2016-11-11T05:27:42.957Z,21.05
2016-11-11T05:28:53.411Z,21
2016-11-11T05:30:03.869Z,21.03
2016-11-11T05:31:14.318Z,21.05
2016-11-11T05:32:24.768Z,21.05
2016-11-11T05:33:35.433Z,21.06
2016-11-11T05:34:46.319Z,21.08
2016-11-11T05:35:56.698Z,21.08
2016-11-11T05:37:07.144Z,21.08
2016-11-11T05:38:17.557Z,21.05
2016-11-11T05:39:27.968Z,21.16
2016-11-11T05:40:38.383Z,21.12
2016-11-11T05:43:13.752Z,21.01
2016-11-11T05:44:24.262Z,21
2016-11-11T05:45:34.672Z,20.91
2016-11-11T05:46:45.085Z,20.9
2016-11-11T05:48:10.049Z,20.94
2016-11-11T05:49:20.462Z,20.9
2016-11-11T05:50:30.883Z,20.93
2016-11-11T05:51:41.298Z,20.91
2016-11-11T05:52:51.744Z,20.93
2016-11-11T05:54:02.161Z,20.85
2016-11-11T05:55:12.771Z,20.78
2016-11-11T05:56:23.181Z,20.75
2016-11-11T05:57:33.600Z,20.82
2016-11-11T05:58:44.007Z,20.82
2016-11-11T05:59:54.909Z,20.83
2016-11-11T06:01:05.922Z,20.87
2016-11-11T06:02:16.336Z,20.83
2016-11-11T06:03:26.746Z,20.78
2016-11-11T06:04:37.155Z,20.85
2016-11-11T06:05:47.568Z,20.9
2016-11-11T06:06:58.181Z,20.96
2016-11-11T06:08:08.658Z,21
2016-11-11T06:09:19.193Z,21
2016-11-11T06:10:29.727Z,21
2016-11-11T06:11:40.256Z,20.9
2016-11-11T06:12:50.985Z,20.9
2016-11-11T06:14:01.522Z,20.82
2016-11-11T06:15:12.051Z,20.81
2016-11-11T06:16:22.581Z,20.69
2016-11-11T06:17:33.108Z,20.69
2016-11-11T06:18:43.747Z,20.63
2016-11-11T06:19:54.279Z,20.69
2016-11-11T06:21:04.814Z,20.66
2016-11-11T06:22:15.346Z,20.66
2016-11-11T06:23:25.881Z,20.66
2016-11-11T06:24:36.515Z,20.68
2016-11-11T06:25:47.050Z,20.56
2016-11-11T06:26:57.580Z,20.64
2016-11-11T06:28:08.643Z,20.66
2016-11-11T06:29:19.171Z,20.73
2016-11-11T06:30:29.704Z,20.69
2016-11-11T06:31:40.231Z,20.78
2016-11-11T06:32:50.759Z,20.82
2016-11-11T06:34:01.290Z,20.82
2016-11-11T06:35:11.828Z,20.85
2016-11-11T06:36:22.462Z,20.76
2016-11-11T06:37:32.991Z,20.76
2016-11-11T06:40:08.585Z,20.78
2016-11-11T06:41:19.206Z,20.9
2016-11-11T06:42:29.620Z,20.9
2016-11-11T06:43:39.974Z,20.93
2016-11-11T06:44:50.301Z,20.98
2016-11-11T06:46:15.191Z,20.93
2016-11-11T06:47:25.508Z,20.96
2016-11-11T06:48:35.829Z,21
2016-11-11T06:49:46.151Z,20.94
2016-11-11T06:50:56.470Z,21.03
2016-11-11T06:52:06.893Z,20.97
2016-11-11T06:53:17.211Z,21.03
2016-11-11T06:54:27.540Z,21
2016-11-11T06:55:37.861Z,21.03
2016-11-11T06:57:03.051Z,21.08
2016-11-11T06:58:27.939Z,21.03
2016-11-11T06:59:38.255Z,21
2016-11-11T07:00:49.061Z,20.94
2016-11-11T07:03:24.380Z,20.9
2016-11-11T07:04:34.704Z,20.87
2016-11-11T07:05:45.053Z,20.79
2016-11-11T07:06:55.372Z,20.82
2016-11-11T07:08:06.744Z,20.82
2016-11-11T07:09:17.069Z,20.82
2016-11-11T07:10:27.389Z,20.73
2016-11-11T07:11:37.721Z,20.75
2016-11-11T07:12:48.044Z,20.82
2016-11-11T07:13:58.464Z,20.81
2016-11-11T07:15:09.266Z,20.79
2016-11-11T07:16:19.588Z,20.73
2016-11-11T07:17:29.906Z,20.79
2016-11-11T07:18:40.225Z,20.75
2016-11-11T07:19:50.752Z,20.78
2016-11-11T07:21:15.637Z,20.78
2016-11-11T07:22:25.960Z,20.76
2016-11-11T07:23:36.277Z,20.82
2016-11-11T07:24:46.937Z,20.76
2016-11-11T07:25:57.258Z,20.72
2016-11-11T07:27:07.586Z,20.72
2016-11-11T07:28:17.971Z,20.69
2016-11-11T07:29:42.938Z,20.63
2016-11-11T07:30:53.595Z,20.71
2016-11-11T07:32:04.006Z,20.64
2016-11-11T07:33:14.446Z,20.66
2016-11-11T07:34:24.857Z,20.72
2016-11-11T07:35:35.273Z,20.71
2016-11-11T07:36:45.687Z,20.72
2016-11-11T07:37:56.119Z,20.71
2016-11-11T07:39:06.532Z,20.73
2016-11-11T07:40:31.494Z,20.81
2016-11-11T07:41:41.903Z,20.82
2016-11-11T07:42:52.319Z,20.88
2016-11-11T07:44:02.769Z,20.91
2016-11-11T07:45:13.186Z,20.93
2016-11-11T07:46:23.799Z,20.9
2016-11-11T07:47:34.212Z,20.93
2016-11-11T07:48:44.628Z,20.98
2016-11-11T07:49:55.041Z,21.05
2016-11-11T07:51:05.451Z,20.94
2016-11-11T07:52:15.969Z,20.93
2016-11-11T07:53:26.382Z,20.82
2016-11-11T07:54:36.796Z,20.82
2016-11-11T07:55:47.215Z,20.71
2016-11-11T07:56:57.630Z,20.81
2016-11-11T07:58:08.050Z,20.82
2016-11-11T07:59:18.946Z,20.82
2016-11-11T08:00:29.364Z,20.83
2016-11-11T08:01:39.779Z,20.88
2016-11-11T08:02:50.191Z,20.85
2016-11-11T08:04:00.806Z,20.85
2016-11-11T08:05:11.218Z,20.83
2016-11-11T08:06:21.633Z,20.81
2016-11-11T08:07:32.045Z,20.75
2016-11-11T08:08:42.455Z,20.76
2016-11-11T08:09:53.061Z,20.75
2016-11-11T08:11:04.331Z,20.76
2016-11-11T08:12:14.743Z,20.73
2016-11-11T08:13:25.097Z,20.78
2016-11-11T08:14:35.414Z,20.73
2016-11-11T08:15:45.737Z,20.75
2016-11-11T08:16:56.096Z,20.69
2016-11-11T08:18:06.938Z,20.79
2016-11-11T08:19:17.259Z,20.82
2016-11-11T08:20:28.301Z,20.76
2016-11-11T08:21:38.973Z,20.75
2016-11-11T08:22:49.359Z,20.82
2016-11-11T08:24:00.062Z,20.79
2016-11-11T08:25:11.000Z,20.83
2016-11-11T08:26:36.083Z,20.83
2016-11-11T08:27:46.518Z,20.88
2016-11-11T08:28:56.959Z,20.81
2016-11-11T08:30:07.429Z,20.83
2016-11-11T08:31:17.865Z,20.83
2016-11-11T08:32:28.506Z,20.81
2016-11-11T08:33:38.941Z,20.88
2016-11-11T08:34:49.381Z,20.87
2016-11-11T08:35:59.819Z,20.94
2016-11-11T08:37:10.262Z,20.93
2016-11-11T08:38:20.806Z,20.93
2016-11-11T08:39:31.250Z,20.94
2016-11-11T08:40:41.725Z,20.94
2016-11-11T08:41:52.160Z,20.93
2016-11-11T08:43:02.600Z,20.97
2016-11-11T08:44:13.142Z,20.93
2016-11-11T08:46:49.170Z,21.03
2016-11-11T08:47:59.609Z,21.06
2016-11-11T08:49:10.740Z,21.09
2016-11-11T08:50:21.177Z,21.11
2016-11-11T08:51:31.620Z,21.03
2016-11-11T08:52:42.060Z,21.06
2016-11-11T08:54:07.047Z,21.06
2016-11-11T08:55:17.487Z,21.09
2016-11-11T08:56:27.928Z,21.16
2016-11-11T08:57:38.392Z,21.19
2016-11-11T08:58:48.834Z,21.18
2016-11-11T08:59:59.306Z,21.3
2016-11-11T09:01:09.745Z,21.21
2016-11-11T09:02:20.180Z,21.19
2016-11-11T09:03:30.612Z,21.28
2016-11-11T09:04:41.190Z,21.31
2016-11-11T09:05:51.905Z,21.3
2016-11-11T09:07:02.449Z,21.22
2016-11-11T09:08:12.973Z,21.36
2016-11-11T09:09:23.421Z,21.34
2016-11-11T09:10:48.903Z,21.37
2016-11-11T09:11:59.346Z,21.37
2016-11-11T09:13:09.793Z,21.36
2016-11-11T09:14:20.234Z,21.38
2016-11-11T09:15:31.449Z,21.42
2016-11-11T09:16:42.085Z,21.42
2016-11-11T09:18:07.064Z,21.49
2016-11-11T09:19:17.501Z,21.48
2016-11-11T09:20:27.934Z,21.55
2016-11-11T09:21:38.372Z,21.58
2016-11-11T09:22:48.843Z,21.68
2016-11-11T09:23:59.769Z,21.68
2016-11-11T09:25:10.215Z,21.63
2016-11-11T09:26:20.655Z,21.63
2016-11-11T09:27:31.187Z,21.71
2016-11-11T09:28:41.653Z,21.86
2016-11-11T09:29:52.522Z,21.82
2016-11-11T09:31:02.846Z,21.82
2016-11-11T09:32:13.166Z,21.9
2016-11-11T09:33:23.601Z,21.93
2016-11-11T09:34:33.969Z,21.94
2016-11-11T09:35:44.765Z,21.98
2016-11-11T09:36:55.090Z,22.04
2016-11-11T09:38:05.414Z,22.06
2016-11-11T09:39:15.867Z,22.09
2016-11-11T09:40:26.189Z,22.09
2016-11-11T09:41:36.523Z,22.21
2016-11-11T09:42:46.903Z,22.21
2016-11-11T09:43:57.323Z,22.27
2016-11-11T09:45:07.731Z,22.3
2016-11-11T09:46:18.188Z,22.38
2016-11-11T09:47:28.602Z,22.29
2016-11-11T09:48:39.012Z,22.33
2016-11-11T09:50:03.977Z,22.39
2016-11-11T09:51:28.942Z,22.42
2016-11-11T09:52:39.348Z,22.42
2016-11-11T09:53:49.765Z,22.46
2016-11-11T09:55:00.179Z,22.49
2016-11-11T09:56:10.702Z,22.44
2016-11-11T09:57:21.117Z,22.49
2016-11-11T09:58:31.535Z,22.46
2016-11-11T09:59:41.948Z,22.56
2016-11-11T10:00:52.369Z,22.56
2016-11-11T10:03:27.791Z,22.6
2016-11-11T10:04:38.323Z,22.59
2016-11-11T10:05:48.954Z,22.6
2016-11-11T10:06:59.516Z,22.64
2016-11-11T10:08:10.048Z,22.59
2016-11-11T10:09:20.577Z,22.61
2016-11-11T10:10:31.109Z,22.49
2016-11-11T10:11:41.680Z,22.61
2016-11-11T10:12:52.210Z,22.57
2016-11-11T10:14:02.744Z,22.63
2016-11-11T10:15:13.274Z,22.63
2016-11-11T10:16:23.808Z,22.61
2016-11-11T10:17:34.546Z,22.57
2016-11-11T10:18:45.075Z,22.59
2016-11-11T10:20:24.660Z,22.66
2016-11-11T10:21:35.191Z,22.6
2016-11-11T10:22:45.825Z,22.66
2016-11-11T10:23:56.357Z,22.72
2016-11-11T10:25:06.889Z,22.66
2016-11-11T10:26:17.422Z,22.59
2016-11-11T10:27:27.959Z,22.66
2016-11-11T10:28:53.224Z,22.67
2016-11-11T10:30:03.756Z,22.67
2016-11-11T10:31:14.299Z,22.78
2016-11-11T10:32:39.356Z,22.81
2016-11-11T10:33:50.084Z,22.85
2016-11-11T10:35:00.628Z,22.86
2016-11-11T10:36:11.169Z,22.89
2016-11-11T10:37:21.706Z,22.89
2016-11-11T10:38:32.241Z,22.84
2016-11-11T10:39:42.983Z,22.97
2016-11-11T10:40:54.028Z,23.04
2016-11-11T10:42:04.599Z,23.04
2016-11-11T10:43:15.136Z,23.14
2016-11-11T10:44:25.673Z,23.18
2016-11-11T10:45:36.210Z,23.26
2016-11-11T10:46:46.744Z,23.32
2016-11-11T10:47:57.273Z,23.31
2016-11-11T10:49:07.805Z,23.35
2016-11-11T10:50:18.346Z,23.38
2016-11-11T10:51:28.982Z,23.41
2016-11-11T10:52:39.528Z,23.49
2016-11-11T10:53:50.556Z,23.45
2016-11-11T10:55:01.087Z,23.52
2016-11-11T10:56:11.622Z,23.63
2016-11-11T10:57:36.781Z,23.6
2016-11-11T10:58:47.319Z,23.67
2016-11-11T10:59:57.851Z,23.64
2016-11-11T11:01:08.390Z,23.71
2016-11-11T11:02:47.976Z,23.74
2016-11-11T11:03:58.509Z,23.69
2016-11-11T11:05:09.044Z,23.67
2016-11-11T11:06:19.603Z,23.75
2016-11-11T11:07:30.232Z,23.67
2016-11-11T11:08:40.785Z,23.81
2016-11-11T11:09:51.450Z,23.75
2016-11-11T11:11:01.867Z,23.78
2016-11-11T11:12:12.281Z,23.82
2016-11-11T11:13:22.705Z,23.89
2016-11-11T11:14:33.120Z,23.92
2016-11-11T11:15:43.544Z,24.05
2016-11-11T11:16:53.957Z,24.06
2016-11-11T11:18:04.380Z,24.18
2016-11-11T11:19:15.291Z,24.11
2016-11-11T11:20:25.736Z,24.19
2016-11-11T11:21:36.149Z,24.18
2016-11-11T11:22:46.567Z,24.21
2016-11-11T11:23:56.986Z,24.31
2016-11-11T11:25:08.100Z,24.31
2016-11-11T11:26:18.517Z,24.39
2016-11-11T11:27:28.929Z,24.56
2016-11-11T11:28:53.898Z,24.53
2016-11-11T11:30:04.508Z,24.66
2016-11-11T11:31:14.924Z,24.7
2016-11-11T11:32:25.339Z,24.71
2016-11-11T11:33:35.751Z,24.75
2016-11-11T11:34:46.170Z,24.79
2016-11-11T11:35:57.671Z,24.86
2016-11-11T11:37:08.094Z,24.84
2016-11-11T11:38:18.513Z,24.97
2016-11-11T11:39:28.931Z,24.94
2016-11-11T11:40:39.347Z,24.9
2016-11-11T11:41:49.796Z,25.01
2016-11-11T11:43:00.211Z,25.02
2016-11-11T11:44:10.634Z,25.02
2016-11-11T11:45:21.052Z,25.09
2016-11-11T11:46:31.568Z,25.12
2016-11-11T11:47:42.469Z,25.09
2016-11-11T11:48:52.881Z,25.12
2016-11-11T11:50:03.294Z,25.24
2016-11-11T11:51:13.706Z,25.3
2016-11-11T11:52:24.120Z,25.44
2016-11-11T11:53:34.629Z,25.35
2016-11-11T11:54:45.527Z,25.41
2016-11-11T11:55:55.938Z,25.48
2016-11-11T11:57:06.352Z,25.61
2016-11-11T11:58:16.715Z,25.6
2016-11-11T11:59:41.614Z,25.82
2016-11-11T12:01:06.509Z,25.89
2016-11-11T12:02:16.834Z,26.06
2016-11-11T12:03:41.724Z,26.2
2016-11-11T12:04:52.261Z,26.44
2016-11-11T12:06:02.585Z,26.46
2016-11-11T12:07:12.909Z,26.66
2016-11-11T12:08:23.247Z,26.76
2016-11-11T12:09:33.568Z,26.96
2016-11-11T12:10:43.890Z,27.05
2016-11-11T12:11:54.214Z,27.27
2016-11-11T12:13:04.538Z,27.78
2016-11-11T12:14:14.863Z,27.93
2016-11-11T12:15:25.186Z,28.27
2016-11-11T12:16:35.707Z,28.62
2016-11-11T12:18:00.606Z,28.74
2016-11-11T12:19:10.929Z,28.64
2016-11-11T12:20:21.254Z,28.98
2016-11-11T12:21:31.676Z,28.98
2016-11-11T12:22:42.042Z,29.08
2016-11-11T12:23:52.368Z,29.3
2016-11-11T12:25:02.699Z,29.47
2016-11-11T12:26:13.023Z,29.58
2016-11-11T12:27:38.121Z,29.95
2016-11-11T12:28:48.447Z,30.19
2016-11-11T12:29:58.807Z,30.01
2016-11-11T12:31:23.705Z,29.47
2016-11-11T12:32:48.599Z,29.47
2016-11-11T12:33:58.932Z,29.55
2016-11-11T12:35:09.269Z,29.71
2016-11-11T12:36:19.596Z,29.78
2016-11-11T12:37:29.919Z,29.85
2016-11-11T12:38:40.241Z,29.99
2016-11-11T12:39:50.571Z,30.06
2016-11-11T12:41:00.903Z,30.08
2016-11-11T12:42:25.818Z,30.06
2016-11-11T12:43:36.232Z,29.76
2016-11-11T12:44:46.646Z,29.67
2016-11-11T12:45:57.073Z,29.74
2016-11-11T12:47:07.489Z,29.99
2016-11-11T12:48:17.908Z,30.16
2016-11-11T12:49:28.328Z,30.3
2016-11-11T12:50:38.745Z,30.42
2016-11-11T12:51:49.166Z,30.63
2016-11-11T12:52:59.590Z,30.73
2016-11-11T12:54:24.558Z,30.81
2016-11-11T12:55:34.973Z,30.86
2016-11-11T12:56:45.876Z,30.86
2016-11-11T12:57:56.292Z,30.9
2016-11-11T12:59:06.709Z,31.23
2016-11-11T13:00:17.227Z,31.27
2016-11-11T13:01:27.638Z,31.15
2016-11-11T13:02:38.054Z,31.22
2016-11-11T13:03:48.473Z,31.2
2016-11-11T13:04:58.888Z,31.41
2016-11-11T13:06:09.507Z,31.5
2016-11-11T13:07:19.926Z,31.56
2016-11-11T13:08:44.905Z,31.64
2016-11-11T13:10:09.899Z,31.6
2016-11-11T13:11:20.320Z,31.75
2016-11-11T13:12:30.742Z,31.9
2016-11-11T13:13:55.712Z,32.02
2016-11-11T13:15:06.132Z,32.16
2016-11-11T13:16:16.552Z,32.31
2016-11-11T13:17:27.003Z,32.46
2016-11-11T13:18:37.437Z,32.53
2016-11-11T13:19:47.853Z,32.62
2016-11-11T13:20:58.273Z,32.83
2016-11-11T13:22:08.691Z,32.56
2016-11-11T13:23:33.662Z,32.77
2016-11-11T13:24:44.079Z,32.4
2016-11-11T13:25:54.569Z,32.16
2016-11-11T13:27:05.313Z,32.25
2016-11-11T13:28:15.856Z,32.39
2016-11-11T13:29:26.396Z,32.34
2016-11-11T13:30:51.463Z,32.34
2016-11-11T13:32:01.999Z,32.14
2016-11-11T13:33:12.543Z,32.09
2016-11-11T13:34:23.576Z,32.07
2016-11-11T13:35:34.117Z,32.06
2016-11-11T13:36:44.655Z,32.03
2016-11-11T13:37:55.190Z,32.16
2016-11-11T13:40:30.968Z,32.35
2016-11-11T13:41:41.519Z,32.58
2016-11-11T13:43:06.587Z,32.41
2016-11-11T13:44:17.125Z,32.14
2016-11-11T13:45:27.661Z,32.29
2016-11-11T13:46:38.702Z,32.19
2016-11-11T13:47:49.245Z,32.36
2016-11-11T13:48:59.883Z,32.39
2016-11-11T13:50:10.509Z,32.32
2016-11-11T13:51:35.577Z,32.31
2016-11-11T13:52:46.122Z,32.34
2016-11-11T13:53:56.660Z,32.51
2016-11-11T13:55:07.697Z,32.44
2016-11-11T13:56:32.785Z,32.35
2016-11-11T13:57:43.322Z,32.66
2016-11-11T14:00:34.706Z,32.77
2016-11-11T14:02:01.723Z,32.71
2016-11-11T14:03:13.608Z,32.71
2016-11-11T14:04:24.417Z,32.41
2016-11-11T14:05:35.483Z,31.87
2016-11-11T14:06:46.028Z,31.69
2016-11-11T14:07:56.574Z,31.52
2016-11-11T14:09:21.642Z,31.32
2016-11-11T14:10:32.673Z,31.38
2016-11-11T14:11:43.212Z,31.28
2016-11-11T14:14:18.855Z,31.27
2016-11-11T14:15:29.597Z,31.32
2016-11-11T14:16:40.969Z,31.82
2016-11-11T14:17:51.506Z,31.91
2016-11-11T14:19:02.041Z,31.99
2016-11-11T14:20:13.071Z,32.03
2016-11-11T14:21:23.610Z,32.22
2016-11-11T14:22:34.157Z,32.4
2016-11-11T14:23:44.695Z,32.43
2016-11-11T14:25:09.961Z,32.69
2016-11-11T14:26:20.499Z,32.49
2016-11-11T14:27:31.035Z,32.32
2016-11-11T14:28:41.601Z,32.1
2016-11-11T14:29:52.138Z,31.78
2016-11-11T14:31:02.673Z,31.62
2016-11-11T14:32:13.209Z,31.76
2016-11-11T14:33:23.785Z,31.97
2016-11-11T14:34:34.353Z,31.91
2016-11-11T14:35:45.207Z,31.91
2016-11-11T14:36:55.956Z,31.88
2016-11-11T14:38:06.494Z,31.91
2016-11-11T14:39:17.030Z,31.68
2016-11-11T14:40:27.567Z,31.71
2016-11-11T14:41:38.103Z,31.75
2016-11-11T14:42:48.640Z,31.9
2016-11-11T14:43:59.969Z,31.98
2016-11-11T14:45:10.512Z,32.12
2016-11-11T14:46:35.593Z,32.1
2016-11-11T14:47:46.162Z,31.87
2016-11-11T14:48:56.732Z,31.72
2016-11-11T14:50:07.305Z,31.65
2016-11-11T14:51:17.846Z,31.56
2016-11-11T14:52:28.385Z,31.69
2016-11-11T14:53:39.732Z,31.79
2016-11-11T14:54:50.271Z,31.91
2016-11-11T14:56:00.807Z,31.99
2016-11-11T14:57:11.352Z,32.07
2016-11-11T14:58:21.889Z,32.24
2016-11-11T14:59:32.432Z,32.28
2016-11-11T15:00:42.968Z,32.34
2016-11-11T15:01:53.503Z,32.16
2016-11-11T15:03:04.042Z,32.28
2016-11-11T15:04:14.584Z,32.35
2016-11-11T15:05:25.129Z,32.41
2016-11-11T15:06:35.668Z,32.4
2016-11-11T15:07:46.205Z,32.35
2016-11-11T15:08:56.744Z,32.16
2016-11-11T15:10:07.291Z,32.12
2016-11-11T15:11:17.831Z,31.88
2016-11-11T15:12:28.385Z,31.94
2016-11-11T15:13:38.921Z,31.84
2016-11-11T15:16:15.033Z,31.91
2016-11-11T15:17:25.575Z,31.78
2016-11-11T15:18:36.119Z,31.95
2016-11-11T15:19:46.659Z,31.95
2016-11-11T15:20:57.194Z,31.97
2016-11-11T15:22:07.833Z,31.99
2016-11-11T15:23:18.370Z,32.06
2016-11-11T15:24:43.447Z,32.09
2016-11-11T15:25:53.986Z,32.1
2016-11-11T15:27:04.662Z,32.1
2016-11-11T15:28:15.206Z,32.05
2016-11-11T15:29:25.758Z,31.91
2016-11-11T15:30:36.310Z,31.98
2016-11-11T15:31:46.846Z,31.9
2016-11-11T15:32:57.483Z,31.9
2016-11-11T15:34:08.024Z,31.85
2016-11-11T15:35:18.561Z,31.95
2016-11-11T15:36:29.099Z,31.85
2016-11-11T15:37:39.637Z,31.84
2016-11-11T15:38:50.769Z,31.87
2016-11-11T15:40:01.314Z,31.79
2016-11-11T15:41:12.355Z,31.84
2016-11-11T15:42:22.899Z,31.82
2016-11-11T15:43:33.434Z,31.91
2016-11-11T15:44:44.172Z,31.91
2016-11-11T15:45:54.712Z,31.9
2016-11-11T15:47:05.745Z,31.82
2016-11-11T15:48:16.281Z,31.75
2016-11-11T15:49:26.822Z,31.75
2016-11-11T15:50:37.459Z,31.82